sensor_id;sensor_type;location;lat;lon;timestamp;P1;durP1;ratioP1;P2;durP2;ratioP2
46589;SDS011;32313;48.722;9.362;2023-06-26T00:01:18;11.83;;;10.63;;
46589;SDS011;32313;48.722;9.362;2023-06-26T00:03:46;12.07;;;10.80;;
46589;SDS011;32313;48.722;9.362;2023-06-26T00:06:12;11.13;;;10.00;;
46589;SDS011;32313;48.722;9.362;2023-06-26T00:08:38;11.70;;;10.50;;
46589;SDS011;32313;48.722;9.362;2023-06-26T00:11:04;11.40;;;10.23;;
46589;SDS011;32313;48.722;9.362;2023-06-26T00:13:29;12.47;;;10.27;;
46589;SDS011;32313;48.722;9.362;2023-06-26T00:15:55;11.67;;;10.57;;
46589;SDS011;32313;48.722;9.362;2023-06-26T00:18:21;12.50;;;11.37;;
46589;SDS011;32313;48.722;9.362;2023-06-26T00:20:48;11.37;;;10.27;;
46589;SDS011;32313;48.722;9.362;2023-06-26T00:23:15;12.10;;;10.90;;
46589;SDS011;32313;48.722;9.362;2023-06-26T00:25:42;12.03;;;10.83;;
46589;SDS011;32313;48.722;9.362;2023-06-26T00:28:08;11.77;;;10.57;;
46589;SDS011;32313;48.722;9.362;2023-06-26T00:30:36;11.33;;;10.13;;
46589;SDS011;32313;48.722;9.362;2023-06-26T00:33:02;12.60;;;11.40;;
46589;SDS011;32313;48.722;9.362;2023-06-26T00:35:30;11.90;;;10.80;;
46589;SDS011;32313;48.722;9.362;2023-06-26T00:37:56;12.33;;;11.23;;
46589;SDS011;32313;48.722;9.362;2023-06-26T00:40:21;12.80;;;11.60;;
46589;SDS011;32313;48.722;9.362;2023-06-26T00:42:47;12.37;;;11.20;;
46589;SDS011;32313;48.722;9.362;2023-06-26T00:45:13;13.20;;;10.63;;
46589;SDS011;32313;48.722;9.362;2023-06-26T00:47:39;12.23;;;11.03;;
46589;SDS011;32313;48.722;9.362;2023-06-26T00:50:05;11.97;;;10.73;;
46589;SDS011;32313;48.722;9.362;2023-06-26T00:52:31;12.40;;;11.20;;
46589;SDS011;32313;48.722;9.362;2023-06-26T00:54:58;12.37;;;11.03;;
46589;SDS011;32313;48.722;9.362;2023-06-26T00:57:24;11.17;;;10.07;;
46589;SDS011;32313;48.722;9.362;2023-06-26T00:59:52;12.70;;;11.40;;
46589;SDS011;32313;48.722;9.362;2023-06-26T01:02:20;12.50;;;11.30;;
46589;SDS011;32313;48.722;9.362;2023-06-26T01:04:47;14.27;;;11.37;;
46589;SDS011;32313;48.722;9.362;2023-06-26T01:07:14;12.47;;;11.20;;
46589;SDS011;32313;48.722;9.362;2023-06-26T01:09:43;12.07;;;10.80;;
46589;SDS011;32313;48.722;9.362;2023-06-26T01:12:13;12.70;;;11.40;;
46589;SDS011;32313;48.722;9.362;2023-06-26T01:14:40;12.10;;;10.90;;
46589;SDS011;32313;48.722;9.362;2023-06-26T01:17:06;12.93;;;10.90;;
46589;SDS011;32313;48.722;9.362;2023-06-26T01:19:37;12.73;;;11.53;;
46589;SDS011;32313;48.722;9.362;2023-06-26T01:22:10;13.33;;;11.83;;
46589;SDS011;32313;48.722;9.362;2023-06-26T01:24:40;14.07;;;12.67;;
46589;SDS011;32313;48.722;9.362;2023-06-26T01:27:13;12.90;;;11.60;;
46589;SDS011;32313;48.722;9.362;2023-06-26T01:29:40;13.60;;;10.93;;
46589;SDS011;32313;48.722;9.362;2023-06-26T01:32:08;11.33;;;10.33;;
46589;SDS011;32313;48.722;9.362;2023-06-26T01:34:33;12.73;;;11.43;;
46589;SDS011;32313;48.722;9.362;2023-06-26T01:37:00;13.17;;;11.17;;
46589;SDS011;32313;48.722;9.362;2023-06-26T01:39:26;12.87;;;11.67;;
46589;SDS011;32313;48.722;9.362;2023-06-26T01:41:51;12.47;;;11.37;;
46589;SDS011;32313;48.722;9.362;2023-06-26T01:44:20;12.57;;;11.37;;
46589;SDS011;32313;48.722;9.362;2023-06-26T01:46:57;13.73;;;12.43;;
46589;SDS011;32313;48.722;9.362;2023-06-26T01:54:56;12.87;;;11.67;;
46589;SDS011;32313;48.722;9.362;2023-06-26T01:57:28;13.13;;;11.93;;
46589;SDS011;32313;48.722;9.362;2023-06-26T01:59:56;13.37;;;12.07;;
46589;SDS011;32313;48.722;9.362;2023-06-26T02:02:25;14.03;;;11.77;;
46589;SDS011;32313;48.722;9.362;2023-06-26T02:04:51;12.53;;;11.40;;
46589;SDS011;32313;48.722;9.362;2023-06-26T02:07:17;12.60;;;11.50;;
46589;SDS011;32313;48.722;9.362;2023-06-26T02:09:42;13.47;;;12.17;;
46589;SDS011;32313;48.722;9.362;2023-06-26T02:12:09;13.27;;;11.97;;
46589;SDS011;32313;48.722;9.362;2023-06-26T02:14:35;13.97;;;12.57;;
46589;SDS011;32313;48.722;9.362;2023-06-26T02:17:01;13.83;;;12.43;;
46589;SDS011;32313;48.722;9.362;2023-06-26T02:19:27;13.20;;;12.00;;
46589;SDS011;32313;48.722;9.362;2023-06-26T02:21:53;13.17;;;11.90;;
46589;SDS011;32313;48.722;9.362;2023-06-26T02:24:22;12.70;;;11.47;;
46589;SDS011;32313;48.722;9.362;2023-06-26T02:26:47;13.73;;;12.43;;
46589;SDS011;32313;48.722;9.362;2023-06-26T02:29:14;13.87;;;12.47;;
46589;SDS011;32313;48.722;9.362;2023-06-26T02:31:40;13.80;;;12.40;;
46589;SDS011;32313;48.722;9.362;2023-06-26T02:34:06;12.83;;;11.53;;
46589;SDS011;32313;48.722;9.362;2023-06-26T02:36:32;13.53;;;12.23;;
46589;SDS011;32313;48.722;9.362;2023-06-26T02:38:58;13.53;;;12.23;;
46589;SDS011;32313;48.722;9.362;2023-06-26T02:41:24;17.20;;;12.77;;
46589;SDS011;32313;48.722;9.362;2023-06-26T02:43:50;14.10;;;12.60;;
46589;SDS011;32313;48.722;9.362;2023-06-26T02:46:16;13.53;;;12.13;;
46589;SDS011;32313;48.722;9.362;2023-06-26T02:48:42;14.53;;;13.10;;
46589;SDS011;32313;48.722;9.362;2023-06-26T02:51:08;14.97;;;13.00;;
46589;SDS011;32313;48.722;9.362;2023-06-26T02:53:33;14.87;;;13.37;;
46589;SDS011;32313;48.722;9.362;2023-06-26T02:55:59;14.43;;;13.00;;
46589;SDS011;32313;48.722;9.362;2023-06-26T02:58:25;14.43;;;13.03;;
46589;SDS011;32313;48.722;9.362;2023-06-26T03:00:51;13.97;;;12.67;;
46589;SDS011;32313;48.722;9.362;2023-06-26T03:03:19;14.57;;;13.17;;
46589;SDS011;32313;48.722;9.362;2023-06-26T03:05:44;16.57;;;13.03;;
46589;SDS011;32313;48.722;9.362;2023-06-26T03:08:10;14.53;;;13.17;;
46589;SDS011;32313;48.722;9.362;2023-06-26T03:10:37;13.17;;;11.87;;
46589;SDS011;32313;48.722;9.362;2023-06-26T03:13:02;13.00;;;11.80;;
46589;SDS011;32313;48.722;9.362;2023-06-26T03:15:28;13.77;;;12.37;;
46589;SDS011;32313;48.722;9.362;2023-06-26T03:17:54;13.73;;;12.43;;
46589;SDS011;32313;48.722;9.362;2023-06-26T03:20:24;13.97;;;12.57;;
46589;SDS011;32313;48.722;9.362;2023-06-26T03:22:54;16.17;;;13.53;;
46589;SDS011;32313;48.722;9.362;2023-06-26T03:25:21;13.93;;;12.53;;
46589;SDS011;32313;48.722;9.362;2023-06-26T03:27:48;13.73;;;12.47;;
46589;SDS011;32313;48.722;9.362;2023-06-26T03:30:15;13.83;;;12.53;;
46589;SDS011;32313;48.722;9.362;2023-06-26T03:32:44;13.90;;;12.60;;
46589;SDS011;32313;48.722;9.362;2023-06-26T03:35:10;13.50;;;12.17;;
46589;SDS011;32313;48.722;9.362;2023-06-26T03:37:36;13.87;;;12.13;;
46589;SDS011;32313;48.722;9.362;2023-06-26T03:40:01;14.97;;;13.47;;
46589;SDS011;32313;48.722;9.362;2023-06-26T03:42:29;13.97;;;12.67;;
46589;SDS011;32313;48.722;9.362;2023-06-26T03:44:55;13.60;;;12.20;;
46589;SDS011;32313;48.722;9.362;2023-06-26T03:47:21;13.83;;;12.43;;
46589;SDS011;32313;48.722;9.362;2023-06-26T03:49:47;13.73;;;12.33;;
46589;SDS011;32313;48.722;9.362;2023-06-26T03:52:12;14.83;;;13.20;;
46589;SDS011;32313;48.722;9.362;2023-06-26T03:54:38;13.50;;;12.10;;
46589;SDS011;32313;48.722;9.362;2023-06-26T03:57:04;15.83;;;12.83;;
46589;SDS011;32313;48.722;9.362;2023-06-26T03:59:30;13.67;;;12.37;;
46589;SDS011;32313;48.722;9.362;2023-06-26T04:01:55;13.23;;;11.93;;
46589;SDS011;32313;48.722;9.362;2023-06-26T04:04:21;13.77;;;12.40;;
46589;SDS011;32313;48.722;9.362;2023-06-26T04:06:47;14.20;;;12.70;;
46589;SDS011;32313;48.722;9.362;2023-06-26T04:09:13;13.00;;;11.73;;
46589;SDS011;32313;48.722;9.362;2023-06-26T04:11:38;13.70;;;12.33;;
46589;SDS011;32313;48.722;9.362;2023-06-26T04:14:04;13.67;;;12.27;;
46589;SDS011;32313;48.722;9.362;2023-06-26T04:16:30;13.17;;;11.90;;
46589;SDS011;32313;48.722;9.362;2023-06-26T04:18:56;14.17;;;11.83;;
46589;SDS011;32313;48.722;9.362;2023-06-26T04:21:21;13.00;;;11.70;;
46589;SDS011;32313;48.722;9.362;2023-06-26T04:23:50;14.00;;;11.90;;
46589;SDS011;32313;48.722;9.362;2023-06-26T04:26:15;12.60;;;11.20;;
46589;SDS011;32313;48.722;9.362;2023-06-26T04:28:41;12.27;;;11.17;;
46589;SDS011;32313;48.722;9.362;2023-06-26T04:31:09;15.03;;;12.50;;
46589;SDS011;32313;48.722;9.362;2023-06-26T04:33:35;12.30;;;10.93;;
46589;SDS011;32313;48.722;9.362;2023-06-26T04:36:02;12.33;;;10.63;;
46589;SDS011;32313;48.722;9.362;2023-06-26T04:38:29;12.23;;;11.13;;
46589;SDS011;32313;48.722;9.362;2023-06-26T04:40:58;12.90;;;11.17;;
46589;SDS011;32313;48.722;9.362;2023-06-26T04:43:25;11.73;;;10.53;;
46589;SDS011;32313;48.722;9.362;2023-06-26T04:45:50;12.73;;;11.53;;
46589;SDS011;32313;48.722;9.362;2023-06-26T04:48:16;11.77;;;10.50;;
46589;SDS011;32313;48.722;9.362;2023-06-26T04:50:42;12.23;;;11.03;;
46589;SDS011;32313;48.722;9.362;2023-06-26T04:53:07;12.37;;;11.03;;
46589;SDS011;32313;48.722;9.362;2023-06-26T04:55:33;13.97;;;11.30;;
46589;SDS011;32313;48.722;9.362;2023-06-26T04:58:00;11.63;;;10.43;;
46589;SDS011;32313;48.722;9.362;2023-06-26T05:00:25;11.80;;;10.67;;
46589;SDS011;32313;48.722;9.362;2023-06-26T05:02:51;11.80;;;10.70;;
46589;SDS011;32313;48.722;9.362;2023-06-26T05:05:25;12.00;;;10.87;;
46589;SDS011;32313;48.722;9.362;2023-06-26T05:07:54;13.37;;;10.57;;
46589;SDS011;32313;48.722;9.362;2023-06-26T05:10:21;11.03;;;9.93;;
46589;SDS011;32313;48.722;9.362;2023-06-26T05:12:47;11.70;;;10.60;;
46589;SDS011;32313;48.722;9.362;2023-06-26T05:15:13;11.50;;;10.30;;
46589;SDS011;32313;48.722;9.362;2023-06-26T05:17:39;11.60;;;10.43;;
46589;SDS011;32313;48.722;9.362;2023-06-26T05:20:05;12.20;;;10.93;;
46589;SDS011;32313;48.722;9.362;2023-06-26T05:22:34;11.00;;;10.00;;
46589;SDS011;32313;48.722;9.362;2023-06-26T05:25:04;11.43;;;10.23;;
46589;SDS011;32313;48.722;9.362;2023-06-26T05:27:31;11.17;;;10.03;;
46589;SDS011;32313;48.722;9.362;2023-06-26T05:29:56;11.57;;;9.93;;
46589;SDS011;32313;48.722;9.362;2023-06-26T05:32:22;11.43;;;10.37;;
46589;SDS011;32313;48.722;9.362;2023-06-26T05:34:49;11.07;;;9.77;;
46589;SDS011;32313;48.722;9.362;2023-06-26T05:37:17;11.13;;;10.10;;
46589;SDS011;32313;48.722;9.362;2023-06-26T05:39:46;11.03;;;10.03;;
46589;SDS011;32313;48.722;9.362;2023-06-26T05:42:12;10.33;;;9.20;;
46589;SDS011;32313;48.722;9.362;2023-06-26T05:44:38;10.57;;;9.50;;
46589;SDS011;32313;48.722;9.362;2023-06-26T05:47:04;10.83;;;9.83;;
46589;SDS011;32313;48.722;9.362;2023-06-26T05:49:30;11.50;;;10.23;;
46589;SDS011;32313;48.722;9.362;2023-06-26T05:51:56;10.70;;;9.63;;
46589;SDS011;32313;48.722;9.362;2023-06-26T05:54:23;9.83;;;8.83;;
46589;SDS011;32313;48.722;9.362;2023-06-26T05:56:50;9.97;;;8.77;;
46589;SDS011;32313;48.722;9.362;2023-06-26T05:59:21;10.83;;;9.60;;
46589;SDS011;32313;48.722;9.362;2023-06-26T06:01:47;10.13;;;9.13;;
46589;SDS011;32313;48.722;9.362;2023-06-26T06:04:13;10.10;;;8.70;;
46589;SDS011;32313;48.722;9.362;2023-06-26T06:06:39;12.13;;;8.87;;
46589;SDS011;32313;48.722;9.362;2023-06-26T06:09:04;11.07;;;9.40;;
46589;SDS011;32313;48.722;9.362;2023-06-26T06:11:30;12.63;;;9.47;;
46589;SDS011;32313;48.722;9.362;2023-06-26T06:13:56;11.47;;;9.07;;
46589;SDS011;32313;48.722;9.362;2023-06-26T06:16:24;9.83;;;8.03;;
46589;SDS011;32313;48.722;9.362;2023-06-26T06:18:49;9.37;;;8.40;;
46589;SDS011;32313;48.722;9.362;2023-06-26T06:21:15;11.40;;;9.30;;
46589;SDS011;32313;48.722;9.362;2023-06-26T06:23:40;9.30;;;8.40;;
46589;SDS011;32313;48.722;9.362;2023-06-26T06:26:06;9.87;;;8.87;;
46589;SDS011;32313;48.722;9.362;2023-06-26T06:28:32;8.73;;;7.90;;
46589;SDS011;32313;48.722;9.362;2023-06-26T06:30:58;9.13;;;8.07;;
46589;SDS011;32313;48.722;9.362;2023-06-26T06:33:23;8.33;;;7.57;;
46589;SDS011;32313;48.722;9.362;2023-06-26T06:35:49;8.87;;;8.07;;
46589;SDS011;32313;48.722;9.362;2023-06-26T06:38:15;8.63;;;7.83;;
46589;SDS011;32313;48.722;9.362;2023-06-26T06:40:40;8.70;;;7.90;;
46589;SDS011;32313;48.722;9.362;2023-06-26T06:43:06;8.38;;;7.53;;
46589;SDS011;32313;48.722;9.362;2023-06-26T06:45:31;8.57;;;7.78;;
46589;SDS011;32313;48.722;9.362;2023-06-26T06:47:57;9.38;;;7.28;;
46589;SDS011;32313;48.722;9.362;2023-06-26T06:50:23;8.23;;;6.72;;
46589;SDS011;32313;48.722;9.362;2023-06-26T06:52:49;8.05;;;7.22;;
46589;SDS011;32313;48.722;9.362;2023-06-26T06:55:14;10.18;;;7.18;;
46589;SDS011;32313;48.722;9.362;2023-06-26T06:57:40;10.10;;;7.43;;
46589;SDS011;32313;48.722;9.362;2023-06-26T07:00:09;8.20;;;7.40;;
46589;SDS011;32313;48.722;9.362;2023-06-26T07:02:37;8.07;;;7.25;;
46589;SDS011;32313;48.722;9.362;2023-06-26T07:05:03;7.28;;;6.57;;
46589;SDS011;32313;48.722;9.362;2023-06-26T07:07:30;7.32;;;6.63;;
46589;SDS011;32313;48.722;9.362;2023-06-26T07:10:00;8.18;;;7.38;;
46589;SDS011;32313;48.722;9.362;2023-06-26T07:12:28;7.70;;;6.70;;
46589;SDS011;32313;48.722;9.362;2023-06-26T07:14:54;7.70;;;7.00;;
46589;SDS011;32313;48.722;9.362;2023-06-26T07:17:21;7.88;;;6.38;;
46589;SDS011;32313;48.722;9.362;2023-06-26T07:19:47;7.82;;;6.57;;
46589;SDS011;32313;48.722;9.362;2023-06-26T07:22:13;7.75;;;6.82;;
46589;SDS011;32313;48.722;9.362;2023-06-26T07:24:39;10.73;;;6.78;;
46589;SDS011;32313;48.722;9.362;2023-06-26T07:27:04;8.50;;;6.65;;
46589;SDS011;32313;48.722;9.362;2023-06-26T07:29:30;7.07;;;6.38;;
46589;SDS011;32313;48.722;9.362;2023-06-26T07:31:56;6.53;;;5.93;;
46589;SDS011;32313;48.722;9.362;2023-06-26T07:34:22;6.93;;;6.18;;
46589;SDS011;32313;48.722;9.362;2023-06-26T07:36:47;7.38;;;6.20;;
46589;SDS011;32313;48.722;9.362;2023-06-26T07:39:13;7.13;;;6.28;;
46589;SDS011;32313;48.722;9.362;2023-06-26T07:41:39;6.82;;;6.10;;
46589;SDS011;32313;48.722;9.362;2023-06-26T07:44:04;6.40;;;5.80;;
46589;SDS011;32313;48.722;9.362;2023-06-26T07:46:30;8.70;;;6.03;;
46589;SDS011;32313;48.722;9.362;2023-06-26T07:48:57;7.25;;;6.50;;
46589;SDS011;32313;48.722;9.362;2023-06-26T07:51:22;6.63;;;5.85;;
46589;SDS011;32313;48.722;9.362;2023-06-26T07:53:49;6.28;;;5.68;;
46589;SDS011;32313;48.722;9.362;2023-06-26T07:56:14;6.30;;;5.20;;
46589;SDS011;32313;48.722;9.362;2023-06-26T07:58:40;6.45;;;5.68;;
46589;SDS011;32313;48.722;9.362;2023-06-26T08:01:06;6.80;;;6.20;;
46589;SDS011;32313;48.722;9.362;2023-06-26T08:03:31;6.55;;;5.95;;
46589;SDS011;32313;48.722;9.362;2023-06-26T08:05:57;6.70;;;6.10;;
46589;SDS011;32313;48.722;9.362;2023-06-26T08:08:23;6.78;;;6.07;;
46589;SDS011;32313;48.722;9.362;2023-06-26T08:10:48;7.65;;;5.50;;
46589;SDS011;32313;48.722;9.362;2023-06-26T08:13:14;6.47;;;5.88;;
46589;SDS011;32313;48.722;9.362;2023-06-26T08:15:40;6.68;;;5.90;;
46589;SDS011;32313;48.722;9.362;2023-06-26T08:18:05;7.82;;;5.63;;
46589;SDS011;32313;48.722;9.362;2023-06-26T08:20:31;6.10;;;5.40;;
46589;SDS011;32313;48.722;9.362;2023-06-26T08:22:57;6.65;;;5.20;;
46589;SDS011;32313;48.722;9.362;2023-06-26T08:25:22;7.43;;;5.65;;
46589;SDS011;32313;48.722;9.362;2023-06-26T08:27:48;5.47;;;5.07;;
46589;SDS011;32313;48.722;9.362;2023-06-26T08:30:13;7.05;;;5.10;;
46589;SDS011;32313;48.722;9.362;2023-06-26T08:32:39;5.53;;;5.03;;
46589;SDS011;32313;48.722;9.362;2023-06-26T08:35:06;6.53;;;5.47;;
46589;SDS011;32313;48.722;9.362;2023-06-26T08:37:32;6.00;;;5.35;;
46589;SDS011;32313;48.722;9.362;2023-06-26T08:40:01;5.78;;;5.28;;
46589;SDS011;32313;48.722;9.362;2023-06-26T08:42:26;6.40;;;5.30;;
46589;SDS011;32313;48.722;9.362;2023-06-26T08:44:52;6.32;;;5.72;;
46589;SDS011;32313;48.722;9.362;2023-06-26T08:47:18;10.50;;;5.43;;
46589;SDS011;32313;48.722;9.362;2023-06-26T08:49:51;6.35;;;5.30;;
46589;SDS011;32313;48.722;9.362;2023-06-26T08:52:30;5.95;;;5.45;;
46589;SDS011;32313;48.722;9.362;2023-06-26T08:54:59;7.25;;;4.95;;
46589;SDS011;32313;48.722;9.362;2023-06-26T08:57:31;6.55;;;5.43;;
46589;SDS011;32313;48.722;9.362;2023-06-26T08:59:57;5.90;;;5.38;;
46589;SDS011;32313;48.722;9.362;2023-06-26T09:02:23;5.55;;;5.05;;
46589;SDS011;32313;48.722;9.362;2023-06-26T09:04:49;5.63;;;5.10;;
46589;SDS011;32313;48.722;9.362;2023-06-26T09:07:16;5.93;;;5.07;;
46589;SDS011;32313;48.722;9.362;2023-06-26T09:09:42;7.57;;;5.22;;
46589;SDS011;32313;48.722;9.362;2023-06-26T09:12:08;6.03;;;4.93;;
46589;SDS011;32313;48.722;9.362;2023-06-26T09:14:35;6.32;;;5.30;;
46589;SDS011;32313;48.722;9.362;2023-06-26T09:17:02;5.47;;;4.72;;
46589;SDS011;32313;48.722;9.362;2023-06-26T09:19:28;6.53;;;4.78;;
46589;SDS011;32313;48.722;9.362;2023-06-26T09:21:53;5.15;;;4.65;;
46589;SDS011;32313;48.722;9.362;2023-06-26T09:24:20;9.73;;;5.07;;
46589;SDS011;32313;48.722;9.362;2023-06-26T09:26:47;5.03;;;4.53;;
46589;SDS011;32313;48.722;9.362;2023-06-26T09:29:14;4.57;;;4.25;;
46589;SDS011;32313;48.722;9.362;2023-06-26T09:31:42;5.97;;;4.90;;
46589;SDS011;32313;48.722;9.362;2023-06-26T09:34:09;4.90;;;4.50;;
46589;SDS011;32313;48.722;9.362;2023-06-26T09:36:35;4.85;;;4.45;;
46589;SDS011;32313;48.722;9.362;2023-06-26T09:39:04;5.32;;;4.82;;
46589;SDS011;32313;48.722;9.362;2023-06-26T09:41:37;9.82;;;4.90;;
46589;SDS011;32313;48.722;9.362;2023-06-26T09:44:05;7.32;;;4.53;;
46589;SDS011;32313;48.722;9.362;2023-06-26T09:46:32;4.75;;;4.35;;
46589;SDS011;32313;48.722;9.362;2023-06-26T09:49:11;6.40;;;4.43;;
46589;SDS011;32313;48.722;9.362;2023-06-26T09:51:37;4.63;;;4.25;;
46589;SDS011;32313;48.722;9.362;2023-06-26T09:54:05;5.68;;;4.35;;
46589;SDS011;32313;48.722;9.362;2023-06-26T09:56:31;5.15;;;4.22;;
46589;SDS011;32313;48.722;9.362;2023-06-26T09:58:58;6.63;;;4.28;;
46589;SDS011;32313;48.722;9.362;2023-06-26T10:01:26;4.75;;;4.35;;
46589;SDS011;32313;48.722;9.362;2023-06-26T10:03:53;4.45;;;3.95;;
46589;SDS011;32313;48.722;9.362;2023-06-26T10:06:21;6.55;;;4.53;;
46589;SDS011;32313;48.722;9.362;2023-06-26T10:09:14;4.97;;;4.47;;
46589;SDS011;32313;48.722;9.362;2023-06-26T10:14:21;5.22;;;4.72;;
46589;SDS011;32313;48.722;9.362;2023-06-26T10:16:57;4.55;;;4.18;;
46589;SDS011;32313;48.722;9.362;2023-06-26T10:19:24;4.57;;;4.00;;
46589;SDS011;32313;48.722;9.362;2023-06-26T10:21:53;4.65;;;4.25;;
46589;SDS011;32313;48.722;9.362;2023-06-26T10:24:20;5.10;;;4.60;;
46589;SDS011;32313;48.722;9.362;2023-06-26T10:26:49;4.90;;;4.45;;
46589;SDS011;32313;48.722;9.362;2023-06-26T10:29:17;4.78;;;4.38;;
46589;SDS011;32313;48.722;9.362;2023-06-26T10:31:48;4.70;;;4.20;;
46589;SDS011;32313;48.722;9.362;2023-06-26T10:34:17;4.90;;;4.50;;
46589;SDS011;32313;48.722;9.362;2023-06-26T10:36:43;6.70;;;4.60;;
46589;SDS011;32313;48.722;9.362;2023-06-26T10:39:09;5.00;;;4.53;;
46589;SDS011;32313;48.722;9.362;2023-06-26T10:41:41;5.13;;;4.45;;
46589;SDS011;32313;48.722;9.362;2023-06-26T10:44:08;5.57;;;4.60;;
46589;SDS011;32313;48.722;9.362;2023-06-26T10:46:48;6.85;;;4.75;;
46589;SDS011;32313;48.722;9.362;2023-06-26T10:49:18;4.85;;;4.45;;
46589;SDS011;32313;48.722;9.362;2023-06-26T10:51:54;5.35;;;4.85;;
46589;SDS011;32313;48.722;9.362;2023-06-26T10:54:27;6.22;;;5.03;;
46589;SDS011;32313;48.722;9.362;2023-06-26T10:56:55;5.43;;;4.93;;
46589;SDS011;32313;48.722;9.362;2023-06-26T10:59:25;5.38;;;4.95;;
46589;SDS011;32313;48.722;9.362;2023-06-26T11:01:55;5.50;;;5.00;;
46589;SDS011;32313;48.722;9.362;2023-06-26T11:04:37;6.18;;;5.13;;
46589;SDS011;32313;48.722;9.362;2023-06-26T11:07:18;5.95;;;5.35;;
46589;SDS011;32313;48.722;9.362;2023-06-26T11:15:19;8.48;;;5.90;;
46589;SDS011;32313;48.722;9.362;2023-06-26T11:17:45;6.50;;;5.85;;
46589;SDS011;32313;48.722;9.362;2023-06-26T11:20:13;8.27;;;6.00;;
46589;SDS011;32313;48.722;9.362;2023-06-26T11:22:41;6.18;;;5.65;;
46589;SDS011;32313;48.722;9.362;2023-06-26T11:25:08;6.10;;;5.60;;
46589;SDS011;32313;48.722;9.362;2023-06-26T11:30:05;6.72;;;5.53;;
46589;SDS011;32313;48.722;9.362;2023-06-26T11:32:31;5.85;;;5.35;;
46589;SDS011;32313;48.722;9.362;2023-06-26T11:34:58;6.78;;;5.70;;
46589;SDS011;32313;48.722;9.362;2023-06-26T11:37:25;6.20;;;5.63;;
46589;SDS011;32313;48.722;9.362;2023-06-26T11:39:50;6.10;;;5.50;;
46589;SDS011;32313;48.722;9.362;2023-06-26T11:42:17;7.50;;;5.90;;
46589;SDS011;32313;48.722;9.362;2023-06-26T11:44:44;7.30;;;5.28;;
46589;SDS011;32313;48.722;9.362;2023-06-26T11:47:14;6.05;;;5.53;;
46589;SDS011;32313;48.722;9.362;2023-06-26T11:49:43;7.32;;;6.00;;
46589;SDS011;32313;48.722;9.362;2023-06-26T11:52:10;6.05;;;5.45;;
46589;SDS011;32313;48.722;9.362;2023-06-26T11:54:36;6.93;;;5.68;;
46589;SDS011;32313;48.722;9.362;2023-06-26T11:57:02;5.60;;;5.10;;
46589;SDS011;32313;48.722;9.362;2023-06-26T11:59:35;6.15;;;5.57;;
46589;SDS011;32313;48.722;9.362;2023-06-26T12:02:12;6.30;;;5.28;;
46589;SDS011;32313;48.722;9.362;2023-06-26T12:04:43;7.05;;;5.78;;
46589;SDS011;32313;48.722;9.362;2023-06-26T12:07:10;6.38;;;5.38;;
46589;SDS011;32313;48.722;9.362;2023-06-26T12:09:40;9.93;;;5.80;;
46589;SDS011;32313;48.722;9.362;2023-06-26T12:12:08;8.43;;;5.60;;
46589;SDS011;32313;48.722;9.362;2023-06-26T12:14:35;7.22;;;5.70;;
46589;SDS011;32313;48.722;9.362;2023-06-26T12:17:05;15.25;;;6.35;;
46589;SDS011;32313;48.722;9.362;2023-06-26T12:19:39;7.45;;;5.60;;
46589;SDS011;32313;48.722;9.362;2023-06-26T12:22:09;6.15;;;5.43;;
46589;SDS011;32313;48.722;9.362;2023-06-26T12:24:36;7.05;;;5.72;;
46589;SDS011;32313;48.722;9.362;2023-06-26T12:27:07;5.63;;;5.13;;
46589;SDS011;32313;48.722;9.362;2023-06-26T12:29:34;7.07;;;5.38;;
46589;SDS011;32313;48.722;9.362;2023-06-26T12:32:01;11.35;;;5.63;;
46589;SDS011;32313;48.722;9.362;2023-06-26T12:34:28;6.10;;;5.50;;
46589;SDS011;32313;48.722;9.362;2023-06-26T12:36:59;5.97;;;5.45;;
46589;SDS011;32313;48.722;9.362;2023-06-26T12:39:27;6.57;;;5.70;;
46589;SDS011;32313;48.722;9.362;2023-06-26T12:42:12;5.88;;;5.38;;
46589;SDS011;32313;48.722;9.362;2023-06-26T12:44:39;5.93;;;5.15;;
46589;SDS011;32313;48.722;9.362;2023-06-26T12:47:05;6.43;;;5.30;;
46589;SDS011;32313;48.722;9.362;2023-06-26T12:49:36;7.03;;;4.93;;
46589;SDS011;32313;48.722;9.362;2023-06-26T12:52:05;6.10;;;5.50;;
46589;SDS011;32313;48.722;9.362;2023-06-26T12:54:35;6.22;;;5.60;;
46589;SDS011;32313;48.722;9.362;2023-06-26T12:57:02;6.90;;;5.85;;
46589;SDS011;32313;48.722;9.362;2023-06-26T12:59:31;6.13;;;5.20;;
46589;SDS011;32313;48.722;9.362;2023-06-26T13:01:58;6.00;;;5.40;;
46589;SDS011;32313;48.722;9.362;2023-06-26T13:04:24;6.53;;;5.90;;
46589;SDS011;32313;48.722;9.362;2023-06-26T13:06:50;6.45;;;5.38;;
46589;SDS011;32313;48.722;9.362;2023-06-26T13:09:16;6.10;;;5.57;;
46589;SDS011;32313;48.722;9.362;2023-06-26T13:11:42;6.95;;;4.95;;
46589;SDS011;32313;48.722;9.362;2023-06-26T13:14:08;6.03;;;5.53;;
46589;SDS011;32313;48.722;9.362;2023-06-26T13:16:34;7.75;;;5.68;;
46589;SDS011;32313;48.722;9.362;2023-06-26T13:19:00;7.57;;;5.60;;
46589;SDS011;32313;48.722;9.362;2023-06-26T13:21:27;5.95;;;5.07;;
46589;SDS011;32313;48.722;9.362;2023-06-26T13:23:53;7.30;;;5.07;;
46589;SDS011;32313;48.722;9.362;2023-06-26T13:26:19;7.97;;;5.22;;
46589;SDS011;32313;48.722;9.362;2023-06-26T13:28:46;5.72;;;5.22;;
46589;SDS011;32313;48.722;9.362;2023-06-26T13:31:12;6.22;;;5.50;;
46589;SDS011;32313;48.722;9.362;2023-06-26T13:33:38;6.80;;;5.45;;
46589;SDS011;32313;48.722;9.362;2023-06-26T13:36:04;6.22;;;5.57;;
46589;SDS011;32313;48.722;9.362;2023-06-26T13:38:32;8.40;;;5.50;;
46589;SDS011;32313;48.722;9.362;2023-06-26T13:40:58;8.55;;;5.65;;
46589;SDS011;32313;48.722;9.362;2023-06-26T13:43:26;7.53;;;5.70;;
46589;SDS011;32313;48.722;9.362;2023-06-26T13:45:52;8.38;;;5.57;;
46589;SDS011;32313;48.722;9.362;2023-06-26T13:48:18;5.68;;;5.18;;
46589;SDS011;32313;48.722;9.362;2023-06-26T13:50:44;6.18;;;5.40;;
46589;SDS011;32313;48.722;9.362;2023-06-26T13:53:11;7.57;;;5.57;;
46589;SDS011;32313;48.722;9.362;2023-06-26T13:55:36;6.95;;;5.60;;
46589;SDS011;32313;48.722;9.362;2023-06-26T13:58:03;6.65;;;4.97;;
46589;SDS011;32313;48.722;9.362;2023-06-26T14:00:31;7.90;;;5.03;;
46589;SDS011;32313;48.722;9.362;2023-06-26T14:02:58;5.60;;;5.10;;
46589;SDS011;32313;48.722;9.362;2023-06-26T14:05:29;8.60;;;5.18;;
46589;SDS011;32313;48.722;9.362;2023-06-26T14:07:55;7.07;;;5.13;;
46589;SDS011;32313;48.722;9.362;2023-06-26T14:10:21;6.50;;;4.85;;
46589;SDS011;32313;48.722;9.362;2023-06-26T14:12:47;6.22;;;5.10;;
46589;SDS011;32313;48.722;9.362;2023-06-26T14:15:14;5.78;;;5.07;;
46589;SDS011;32313;48.722;9.362;2023-06-26T14:17:39;7.03;;;5.20;;
46589;SDS011;32313;48.722;9.362;2023-06-26T14:20:06;5.90;;;4.95;;
46589;SDS011;32313;48.722;9.362;2023-06-26T14:22:38;5.35;;;4.85;;
46589;SDS011;32313;48.722;9.362;2023-06-26T14:25:05;6.10;;;4.85;;
46589;SDS011;32313;48.722;9.362;2023-06-26T14:27:31;5.60;;;5.10;;
46589;SDS011;32313;48.722;9.362;2023-06-26T14:29:57;5.88;;;5.28;;
46589;SDS011;32313;48.722;9.362;2023-06-26T14:32:23;6.95;;;5.30;;
46589;SDS011;32313;48.722;9.362;2023-06-26T14:34:48;7.88;;;4.80;;
46589;SDS011;32313;48.722;9.362;2023-06-26T14:37:14;6.72;;;4.68;;
46589;SDS011;32313;48.722;9.362;2023-06-26T14:39:40;5.28;;;4.70;;
46589;SDS011;32313;48.722;9.362;2023-06-26T14:42:05;6.05;;;4.60;;
46589;SDS011;32313;48.722;9.362;2023-06-26T14:44:32;5.55;;;4.40;;
46589;SDS011;32313;48.722;9.362;2023-06-26T14:46:57;4.55;;;4.15;;
46589;SDS011;32313;48.722;9.362;2023-06-26T14:49:23;5.15;;;4.65;;
46589;SDS011;32313;48.722;9.362;2023-06-26T14:51:49;6.13;;;4.50;;